sensor_id;sensor_type;location;lat;lon;timestamp;P1;durP1;ratioP1;P2;durP2;ratioP2
30472;SDS011;17263;48.160;11.452;2024-03-08T00:00:00;16.43;;;12.83;;
30472;SDS011;17263;48.160;11.452;2024-03-08T00:02:35;18.20;;;13.47;;
30472;SDS011;17263;48.160;11.452;2024-03-08T00:05:03;18.43;;;13.80;;
30472;SDS011;17263;48.160;11.452;2024-03-08T00:07:34;18.77;;;13.53;;
30472;SDS011;17263;48.160;11.452;2024-03-08T00:10:02;18.10;;;13.33;;
30472;SDS011;17263;48.160;11.452;2024-03-08T00:12:28;16.13;;;12.73;;
30472;SDS011;17263;48.160;11.452;2024-03-08T00:14:54;18.33;;;13.23;;
30472;SDS011;17263;48.160;11.452;2024-03-08T00:17:21;16.80;;;12.87;;
30472;SDS011;17263;48.160;11.452;2024-03-08T00:19:48;18.20;;;12.97;;
30472;SDS011;17263;48.160;11.452;2024-03-08T00:22:15;16.33;;;13.20;;
30472;SDS011;17263;48.160;11.452;2024-03-08T00:24:42;19.40;;;13.93;;
30472;SDS011;17263;48.160;11.452;2024-03-08T00:27:08;16.57;;;12.50;;
30472;SDS011;17263;48.160;11.452;2024-03-08T00:29:34;16.63;;;13.27;;
30472;SDS011;17263;48.160;11.452;2024-03-08T00:32:00;16.60;;;12.73;;
30472;SDS011;17263;48.160;11.452;2024-03-08T00:34:26;16.83;;;12.53;;
30472;SDS011;17263;48.160;11.452;2024-03-08T00:36:52;16.30;;;12.53;;
30472;SDS011;17263;48.160;11.452;2024-03-08T00:39:18;16.97;;;12.97;;
30472;SDS011;17263;48.160;11.452;2024-03-08T00:41:48;18.50;;;13.63;;
30472;SDS011;17263;48.160;11.452;2024-03-08T00:44:14;16.73;;;13.13;;
30472;SDS011;17263;48.160;11.452;2024-03-08T00:46:40;17.23;;;13.23;;
30472;SDS011;17263;48.160;11.452;2024-03-08T00:49:06;16.10;;;12.80;;
30472;SDS011;17263;48.160;11.452;2024-03-08T00:51:32;19.77;;;14.57;;
30472;SDS011;17263;48.160;11.452;2024-03-08T00:53:58;19.30;;;13.47;;
30472;SDS011;17263;48.160;11.452;2024-03-08T00:56:24;18.60;;;13.27;;
30472;SDS011;17263;48.160;11.452;2024-03-08T00:58:50;18.93;;;14.40;;
30472;SDS011;17263;48.160;11.452;2024-03-08T01:01:18;18.67;;;14.50;;
30472;SDS011;17263;48.160;11.452;2024-03-08T01:03:44;16.57;;;13.27;;
30472;SDS011;17263;48.160;11.452;2024-03-08T01:06:10;18.40;;;13.40;;
30472;SDS011;17263;48.160;11.452;2024-03-08T01:08:37;18.60;;;13.97;;
30472;SDS011;17263;48.160;11.452;2024-03-08T01:11:08;19.13;;;14.17;;
30472;SDS011;17263;48.160;11.452;2024-03-08T01:13:34;18.50;;;13.97;;
30472;SDS011;17263;48.160;11.452;2024-03-08T01:16:01;17.47;;;14.10;;
30472;SDS011;17263;48.160;11.452;2024-03-08T01:18:29;18.90;;;14.13;;
30472;SDS011;17263;48.160;11.452;2024-03-08T01:20:55;18.00;;;14.27;;
30472;SDS011;17263;48.160;11.452;2024-03-08T01:23:21;16.87;;;12.90;;
30472;SDS011;17263;48.160;11.452;2024-03-08T01:25:47;20.80;;;14.33;;
30472;SDS011;17263;48.160;11.452;2024-03-08T01:28:17;18.37;;;13.63;;
30472;SDS011;17263;48.160;11.452;2024-03-08T01:30:43;18.73;;;14.37;;
30472;SDS011;17263;48.160;11.452;2024-03-08T01:33:10;19.70;;;14.93;;
30472;SDS011;17263;48.160;11.452;2024-03-08T01:35:37;20.80;;;15.03;;
30472;SDS011;17263;48.160;11.452;2024-03-08T01:38:03;20.20;;;15.03;;
30472;SDS011;17263;48.160;11.452;2024-03-08T01:40:30;20.10;;;15.23;;
30472;SDS011;17263;48.160;11.452;2024-03-08T01:42:56;18.87;;;14.77;;
30472;SDS011;17263;48.160;11.452;2024-03-08T01:45:22;21.30;;;14.57;;
30472;SDS011;17263;48.160;11.452;2024-03-08T01:47:48;19.83;;;15.73;;
30472;SDS011;17263;48.160;11.452;2024-03-08T01:50:14;18.20;;;14.50;;
30472;SDS011;17263;48.160;11.452;2024-03-08T01:52:41;20.30;;;14.73;;
30472;SDS011;17263;48.160;11.452;2024-03-08T01:55:08;18.97;;;14.57;;
30472;SDS011;17263;48.160;11.452;2024-03-08T01:57:34;18.77;;;14.63;;
30472;SDS011;17263;48.160;11.452;2024-03-08T02:00:03;20.67;;;15.00;;
30472;SDS011;17263;48.160;11.452;2024-03-08T02:02:32;20.90;;;15.30;;
30472;SDS011;17263;48.160;11.452;2024-03-08T02:05:00;18.77;;;15.60;;
30472;SDS011;17263;48.160;11.452;2024-03-08T02:07:26;21.40;;;14.60;;
30472;SDS011;17263;48.160;11.452;2024-03-08T02:09:52;21.27;;;15.00;;
30472;SDS011;17263;48.160;11.452;2024-03-08T02:12:19;19.90;;;15.10;;
30472;SDS011;17263;48.160;11.452;2024-03-08T02:14:48;21.30;;;15.23;;
30472;SDS011;17263;48.160;11.452;2024-03-08T02:17:14;19.73;;;14.80;;
30472;SDS011;17263;48.160;11.452;2024-03-08T02:19:40;20.77;;;15.50;;
30472;SDS011;17263;48.160;11.452;2024-03-08T02:22:07;21.50;;;16.33;;
30472;SDS011;17263;48.160;11.452;2024-03-08T02:24:33;20.40;;;15.77;;
30472;SDS011;17263;48.160;11.452;2024-03-08T02:26:59;22.67;;;16.00;;
30472;SDS011;17263;48.160;11.452;2024-03-08T02:29:25;20.43;;;16.00;;
30472;SDS011;17263;48.160;11.452;2024-03-08T02:31:51;21.13;;;15.33;;
30472;SDS011;17263;48.160;11.452;2024-03-08T02:34:17;21.27;;;15.60;;
30472;SDS011;17263;48.160;11.452;2024-03-08T02:36:43;21.73;;;15.73;;
30472;SDS011;17263;48.160;11.452;2024-03-08T02:39:09;22.73;;;16.60;;
30472;SDS011;17263;48.160;11.452;2024-03-08T02:41:36;21.80;;;16.10;;
30472;SDS011;17263;48.160;11.452;2024-03-08T02:44:02;22.53;;;17.33;;
30472;SDS011;17263;48.160;11.452;2024-03-08T02:46:29;23.07;;;16.83;;
30472;SDS011;17263;48.160;11.452;2024-03-08T02:48:55;21.87;;;15.63;;
30472;SDS011;17263;48.160;11.452;2024-03-08T02:51:22;21.97;;;16.60;;
30472;SDS011;17263;48.160;11.452;2024-03-08T02:53:48;22.27;;;16.03;;
30472;SDS011;17263;48.160;11.452;2024-03-08T02:56:17;21.87;;;16.33;;
30472;SDS011;17263;48.160;11.452;2024-03-08T02:58:43;21.87;;;16.97;;
30472;SDS011;17263;48.160;11.452;2024-03-08T03:01:14;22.53;;;16.67;;
30472;SDS011;17263;48.160;11.452;2024-03-08T03:03:41;20.40;;;15.80;;
30472;SDS011;17263;48.160;11.452;2024-03-08T03:06:08;22.43;;;16.77;;
30472;SDS011;17263;48.160;11.452;2024-03-08T03:08:34;22.27;;;16.27;;
30472;SDS011;17263;48.160;11.452;2024-03-08T03:11:00;24.50;;;16.43;;
30472;SDS011;17263;48.160;11.452;2024-03-08T03:13:26;24.73;;;17.43;;
30472;SDS011;17263;48.160;11.452;2024-03-08T03:15:55;21.97;;;16.10;;
30472;SDS011;17263;48.160;11.452;2024-03-08T03:18:23;21.93;;;16.93;;
30472;SDS011;17263;48.160;11.452;2024-03-08T03:20:49;23.50;;;16.73;;
30472;SDS011;17263;48.160;11.452;2024-03-08T03:23:16;25.07;;;17.63;;
30472;SDS011;17263;48.160;11.452;2024-03-08T03:25:46;24.20;;;16.23;;
30472;SDS011;17263;48.160;11.452;2024-03-08T03:28:12;24.33;;;16.97;;
30472;SDS011;17263;48.160;11.452;2024-03-08T03:30:44;22.77;;;16.27;;
30472;SDS011;17263;48.160;11.452;2024-03-08T03:33:11;24.57;;;17.80;;
30472;SDS011;17263;48.160;11.452;2024-03-08T03:35:40;23.47;;;17.00;;
30472;SDS011;17263;48.160;11.452;2024-03-08T03:38:06;26.00;;;17.87;;
30472;SDS011;17263;48.160;11.452;2024-03-08T03:40:33;23.83;;;17.10;;
30472;SDS011;17263;48.160;11.452;2024-03-08T03:42:59;22.27;;;16.57;;
30472;SDS011;17263;48.160;11.452;2024-03-08T03:45:26;24.37;;;17.63;;
30472;SDS011;17263;48.160;11.452;2024-03-08T03:47:53;23.97;;;17.93;;
30472;SDS011;17263;48.160;11.452;2024-03-08T03:50:19;23.13;;;16.80;;
30472;SDS011;17263;48.160;11.452;2024-03-08T03:52:45;23.93;;;17.17;;
30472;SDS011;17263;48.160;11.452;2024-03-08T03:55:12;23.53;;;16.90;;
30472;SDS011;17263;48.160;11.452;2024-03-08T03:57:39;22.80;;;17.00;;
30472;SDS011;17263;48.160;11.452;2024-03-08T04:00:06;22.87;;;17.37;;
30472;SDS011;17263;48.160;11.452;2024-03-08T04:02:38;25.07;;;18.10;;
30472;SDS011;17263;48.160;11.452;2024-03-08T04:05:05;25.57;;;18.07;;
30472;SDS011;17263;48.160;11.452;2024-03-08T04:07:34;26.37;;;18.40;;
30472;SDS011;17263;48.160;11.452;2024-03-08T04:10:02;26.63;;;18.23;;
30472;SDS011;17263;48.160;11.452;2024-03-08T04:12:29;25.33;;;17.27;;
30472;SDS011;17263;48.160;11.452;2024-03-08T04:14:55;24.93;;;18.00;;
30472;SDS011;17263;48.160;11.452;2024-03-08T04:17:21;25.83;;;18.77;;
30472;SDS011;17263;48.160;11.452;2024-03-08T04:19:49;25.80;;;17.47;;
30472;SDS011;17263;48.160;11.452;2024-03-08T04:22:15;24.80;;;18.97;;
30472;SDS011;17263;48.160;11.452;2024-03-08T04:24:43;25.23;;;19.20;;
30472;SDS011;17263;48.160;11.452;2024-03-08T04:27:10;26.03;;;19.97;;
30472;SDS011;17263;48.160;11.452;2024-03-08T04:29:36;29.03;;;18.33;;
30472;SDS011;17263;48.160;11.452;2024-03-08T04:32:03;25.83;;;18.37;;
30472;SDS011;17263;48.160;11.452;2024-03-08T04:34:30;25.40;;;18.80;;
30472;SDS011;17263;48.160;11.452;2024-03-08T04:36:57;26.87;;;19.17;;
30472;SDS011;17263;48.160;11.452;2024-03-08T04:39:23;29.17;;;19.33;;
30472;SDS011;17263;48.160;11.452;2024-03-08T04:41:50;27.93;;;18.77;;
30472;SDS011;17263;48.160;11.452;2024-03-08T04:44:16;25.70;;;19.27;;
30472;SDS011;17263;48.160;11.452;2024-03-08T04:46:43;28.63;;;19.67;;
30472;SDS011;17263;48.160;11.452;2024-03-08T04:49:09;26.73;;;20.00;;
30472;SDS011;17263;48.160;11.452;2024-03-08T04:51:37;29.77;;;20.57;;
30472;SDS011;17263;48.160;11.452;2024-03-08T04:54:03;29.20;;;20.53;;
30472;SDS011;17263;48.160;11.452;2024-03-08T04:56:30;26.13;;;19.87;;
30472;SDS011;17263;48.160;11.452;2024-03-08T04:58:57;27.47;;;19.90;;
30472;SDS011;17263;48.160;11.452;2024-03-08T05:01:23;28.03;;;20.63;;
30472;SDS011;17263;48.160;11.452;2024-03-08T05:03:49;27.80;;;19.90;;
30472;SDS011;17263;48.160;11.452;2024-03-08T05:06:15;34.50;;;23.13;;
30472;SDS011;17263;48.160;11.452;2024-03-08T05:08:42;27.30;;;20.53;;
30472;SDS011;17263;48.160;11.452;2024-03-08T05:11:08;31.17;;;21.70;;
30472;SDS011;17263;48.160;11.452;2024-03-08T05:13:35;27.77;;;21.27;;
30472;SDS011;17263;48.160;11.452;2024-03-08T05:16:01;30.30;;;21.10;;
30472;SDS011;17263;48.160;11.452;2024-03-08T05:18:27;28.27;;;21.60;;
30472;SDS011;17263;48.160;11.452;2024-03-08T05:20:57;30.27;;;21.87;;
30472;SDS011;17263;48.160;11.452;2024-03-08T05:23:23;31.93;;;21.90;;
30472;SDS011;17263;48.160;11.452;2024-03-08T05:25:49;30.93;;;22.40;;
30472;SDS011;17263;48.160;11.452;2024-03-08T05:28:15;30.37;;;22.83;;
30472;SDS011;17263;48.160;11.452;2024-03-08T05:30:42;29.30;;;21.47;;
30472;SDS011;17263;48.160;11.452;2024-03-08T05:33:08;28.97;;;21.77;;
30472;SDS011;17263;48.160;11.452;2024-03-08T05:35:36;31.47;;;22.07;;
30472;SDS011;17263;48.160;11.452;2024-03-08T05:38:02;30.10;;;21.87;;
30472;SDS011;17263;48.160;11.452;2024-03-08T05:40:28;32.80;;;21.83;;
30472;SDS011;17263;48.160;11.452;2024-03-08T05:42:57;32.10;;;22.30;;
30472;SDS011;17263;48.160;11.452;2024-03-08T05:45:25;28.17;;;20.47;;
30472;SDS011;17263;48.160;11.452;2024-03-08T05:47:51;31.97;;;22.40;;
30472;SDS011;17263;48.160;11.452;2024-03-08T05:50:18;28.67;;;20.83;;
30472;SDS011;17263;48.160;11.452;2024-03-08T05:52:45;27.83;;;20.83;;
30472;SDS011;17263;48.160;11.452;2024-03-08T05:55:13;27.67;;;20.50;;
30472;SDS011;17263;48.160;11.452;2024-03-08T05:57:40;27.77;;;20.10;;
30472;SDS011;17263;48.160;11.452;2024-03-08T06:00:08;28.67;;;21.00;;
30472;SDS011;17263;48.160;11.452;2024-03-08T06:02:37;29.57;;;20.97;;
30472;SDS011;17263;48.160;11.452;2024-03-08T06:05:08;29.10;;;20.57;;
30472;SDS011;17263;48.160;11.452;2024-03-08T06:07:36;31.77;;;20.80;;
30472;SDS011;17263;48.160;11.452;2024-03-08T06:10:07;31.60;;;22.00;;
30472;SDS011;17263;48.160;11.452;2024-03-08T06:12:35;26.03;;;19.73;;
30472;SDS011;17263;48.160;11.452;2024-03-08T06:15:08;25.67;;;19.77;;
30472;SDS011;17263;48.160;11.452;2024-03-08T06:17:35;26.13;;;19.83;;
30472;SDS011;17263;48.160;11.452;2024-03-08T06:20:02;27.47;;;20.17;;
30472;SDS011;17263;48.160;11.452;2024-03-08T06:22:39;27.23;;;20.33;;
30472;SDS011;17263;48.160;11.452;2024-03-08T06:25:06;28.47;;;20.73;;
30472;SDS011;17263;48.160;11.452;2024-03-08T06:27:42;27.83;;;20.17;;
30472;SDS011;17263;48.160;11.452;2024-03-08T06:30:09;28.40;;;19.37;;
30472;SDS011;17263;48.160;11.452;2024-03-08T06:32:36;30.33;;;20.53;;
30472;SDS011;17263;48.160;11.452;2024-03-08T06:35:03;24.60;;;18.17;;
30472;SDS011;17263;48.160;11.452;2024-03-08T06:37:32;25.63;;;19.07;;
30472;SDS011;17263;48.160;11.452;2024-03-08T06:39:59;25.80;;;19.07;;
30472;SDS011;17263;48.160;11.452;2024-03-08T06:42:26;22.83;;;17.53;;
30472;SDS011;17263;48.160;11.452;2024-03-08T06:44:53;27.70;;;18.53;;
30472;SDS011;17263;48.160;11.452;2024-03-08T06:47:21;28.70;;;18.67;;
30472;SDS011;17263;48.160;11.452;2024-03-08T06:49:51;23.10;;;17.73;;
30472;SDS011;17263;48.160;11.452;2024-03-08T06:52:17;23.60;;;17.40;;
30472;SDS011;17263;48.160;11.452;2024-03-08T06:54:43;22.40;;;17.10;;
30472;SDS011;17263;48.160;11.452;2024-03-08T06:57:09;21.53;;;16.57;;
30472;SDS011;17263;48.160;11.452;2024-03-08T06:59:36;24.27;;;18.37;;
30472;SDS011;17263;48.160;11.452;2024-03-08T07:02:02;24.30;;;17.60;;
30472;SDS011;17263;48.160;11.452;2024-03-08T07:04:29;22.80;;;17.20;;
30472;SDS011;17263;48.160;11.452;2024-03-08T07:06:56;23.57;;;16.70;;
30472;SDS011;17263;48.160;11.452;2024-03-08T07:09:23;24.80;;;16.37;;
30472;SDS011;17263;48.160;11.452;2024-03-08T07:11:52;21.53;;;16.87;;
30472;SDS011;17263;48.160;11.452;2024-03-08T07:14:23;23.07;;;16.70;;
30472;SDS011;17263;48.160;11.452;2024-03-08T07:16:49;23.80;;;18.30;;
30472;SDS011;17263;48.160;11.452;2024-03-08T07:19:16;23.37;;;16.70;;
30472;SDS011;17263;48.160;11.452;2024-03-08T07:21:43;22.67;;;16.93;;
30472;SDS011;17263;48.160;11.452;2024-03-08T07:24:10;21.30;;;16.23;;
30472;SDS011;17263;48.160;11.452;2024-03-08T07:26:53;23.87;;;17.17;;
30472;SDS011;17263;48.160;11.452;2024-03-08T07:29:21;23.00;;;16.20;;
30472;SDS011;17263;48.160;11.452;2024-03-08T07:31:47;24.43;;;17.53;;
30472;SDS011;17263;48.160;11.452;2024-03-08T07:34:21;23.63;;;16.90;;
30472;SDS011;17263;48.160;11.452;2024-03-08T07:36:47;22.37;;;16.53;;
30472;SDS011;17263;48.160;11.452;2024-03-08T07:39:16;21.63;;;16.63;;
30472;SDS011;17263;48.160;11.452;2024-03-08T07:41:42;21.33;;;16.50;;
30472;SDS011;17263;48.160;11.452;2024-03-08T07:44:08;23.63;;;16.60;;
30472;SDS011;17263;48.160;11.452;2024-03-08T07:46:34;22.03;;;15.30;;
30472;SDS011;17263;48.160;11.452;2024-03-08T07:49:01;23.80;;;17.27;;
30472;SDS011;17263;48.160;11.452;2024-03-08T07:51:28;23.63;;;16.63;;
30472;SDS011;17263;48.160;11.452;2024-03-08T07:53:54;21.97;;;16.73;;
30472;SDS011;17263;48.160;11.452;2024-03-08T07:56:20;23.87;;;17.10;;
30472;SDS011;17263;48.160;11.452;2024-03-08T07:58:47;23.43;;;16.47;;
30472;SDS011;17263;48.160;11.452;2024-03-08T08:01:17;26.43;;;17.23;;
30472;SDS011;17263;48.160;11.452;2024-03-08T08:03:43;22.33;;;16.93;;
30472;SDS011;17263;48.160;11.452;2024-03-08T08:06:10;24.07;;;17.83;;
30472;SDS011;17263;48.160;11.452;2024-03-08T08:08:41;24.03;;;17.20;;
30472;SDS011;17263;48.160;11.452;2024-03-08T08:11:08;22.10;;;17.37;;
30472;SDS011;17263;48.160;11.452;2024-03-08T08:13:34;24.37;;;17.33;;
30472;SDS011;17263;48.160;11.452;2024-03-08T08:16:02;22.00;;;17.03;;
30472;SDS011;17263;48.160;11.452;2024-03-08T08:18:29;22.60;;;16.20;;
30472;SDS011;17263;48.160;11.452;2024-03-08T08:20:55;19.63;;;15.53;;
30472;SDS011;17263;48.160;11.452;2024-03-08T08:23:21;22.13;;;16.90;;
30472;SDS011;17263;48.160;11.452;2024-03-08T08:25:47;23.80;;;16.93;;
30472;SDS011;17263;48.160;11.452;2024-03-08T08:28:18;23.77;;;15.80;;
30472;SDS011;17263;48.160;11.452;2024-03-08T08:30:44;21.50;;;16.73;;
30472;SDS011;17263;48.160;11.452;2024-03-08T08:33:10;24.77;;;16.90;;
30472;SDS011;17263;48.160;11.452;2024-03-08T08:35:36;25.30;;;17.70;;
30472;SDS011;17263;48.160;11.452;2024-03-08T08:38:03;20.20;;;15.63;;
30472;SDS011;17263;48.160;11.452;2024-03-08T08:40:30;20.53;;;15.97;;
30472;SDS011;17263;48.160;11.452;2024-03-08T08:42:59;21.93;;;16.80;;
30472;SDS011;17263;48.160;11.452;2024-03-08T08:45:25;22.17;;;17.10;;
30472;SDS011;17263;48.160;11.452;2024-03-08T08:47:52;19.50;;;15.50;;
30472;SDS011;17263;48.160;11.452;2024-03-08T08:50:19;20.70;;;16.00;;
30472;SDS011;17263;48.160;11.452;2024-03-08T08:52:48;22.00;;;16.27;;
30472;SDS011;17263;48.160;11.452;2024-03-08T08:55:15;22.00;;;16.93;;
30472;SDS011;17263;48.160;11.452;2024-03-08T08:57:41;26.37;;;17.67;;
30472;SDS011;17263;48.160;11.452;2024-03-08T09:00:07;22.23;;;16.50;;
30472;SDS011;17263;48.160;11.452;2024-03-08T09:02:36;20.60;;;16.23;;
30472;SDS011;17263;48.160;11.452;2024-03-08T09:05:03;21.00;;;15.70;;
30472;SDS011;17263;48.160;11.452;2024-03-08T09:07:30;24.40;;;17.17;;
30472;SDS011;17263;48.160;11.452;2024-03-08T09:09:56;20.27;;;15.57;;
30472;SDS011;17263;48.160;11.452;2024-03-08T09:12:24;19.67;;;15.40;;
30472;SDS011;17263;48.160;11.452;2024-03-08T09:14:50;23.37;;;16.50;;
30472;SDS011;17263;48.160;11.452;2024-03-08T09:17:16;23.60;;;16.37;;
30472;SDS011;17263;48.160;11.452;2024-03-08T09:19:48;26.97;;;16.47;;
30472;SDS011;17263;48.160;11.452;2024-03-08T09:22:14;22.80;;;17.07;;
30472;SDS011;17263;48.160;11.452;2024-03-08T09:24:40;21.43;;;15.93;;
30472;SDS011;17263;48.160;11.452;2024-03-08T09:27:06;24.47;;;17.63;;
30472;SDS011;17263;48.160;11.452;2024-03-08T09:29:32;23.40;;;16.50;;
30472;SDS011;17263;48.160;11.452;2024-03-08T09:31:58;24.57;;;18.07;;
30472;SDS011;17263;48.160;11.452;2024-03-08T09:34:24;25.70;;;18.60;;
30472;SDS011;17263;48.160;11.452;2024-03-08T09:36:50;23.13;;;16.67;;
30472;SDS011;17263;48.160;11.452;2024-03-08T09:39:17;23.33;;;17.27;;
30472;SDS011;17263;48.160;11.452;2024-03-08T09:41:46;23.43;;;16.80;;
30472;SDS011;17263;48.160;11.452;2024-03-08T09:44:15;21.63;;;16.90;;
30472;SDS011;17263;48.160;11.452;2024-03-08T09:46:42;23.17;;;17.27;;
30472;SDS011;17263;48.160;11.452;2024-03-08T09:49:08;24.30;;;17.50;;
30472;SDS011;17263;48.160;11.452;2024-03-08T09:51:37;22.00;;;16.90;;
30472;SDS011;17263;48.160;11.452;2024-03-08T09:54:06;20.77;;;16.70;;
30472;SDS011;17263;48.160;11.452;2024-03-08T09:56:32;23.07;;;16.40;;
30472;SDS011;17263;48.160;11.452;2024-03-08T09:58:59;20.73;;;16.50;;
30472;SDS011;17263;48.160;11.452;2024-03-08T10:01:31;23.13;;;16.13;;
30472;SDS011;17263;48.160;11.452;2024-03-08T10:03:57;21.77;;;16.67;;
30472;SDS011;17263;48.160;11.452;2024-03-08T10:06:23;22.67;;;17.20;;
30472;SDS011;17263;48.160;11.452;2024-03-08T10:08:50;23.17;;;17.13;;
30472;SDS011;17263;48.160;11.452;2024-03-08T10:11:19;22.27;;;16.87;;
30472;SDS011;17263;48.160;11.452;2024-03-08T10:13:46;22.27;;;17.10;;
30472;SDS011;17263;48.160;11.452;2024-03-08T10:16:13;27.53;;;18.00;;
30472;SDS011;17263;48.160;11.452;2024-03-08T10:18:39;24.83;;;17.43;;
30472;SDS011;17263;48.160;11.452;2024-03-08T10:21:07;25.10;;;17.10;;
30472;SDS011;17263;48.160;11.452;2024-03-08T10:23:35;22.03;;;16.60;;
30472;SDS011;17263;48.160;11.452;2024-03-08T10:26:12;23.50;;;16.57;;
30472;SDS011;17263;48.160;11.452;2024-03-08T10:28:44;24.37;;;16.67;;
30472;SDS011;17263;48.160;11.452;2024-03-08T10:31:11;24.73;;;17.47;;
30472;SDS011;17263;48.160;11.452;2024-03-08T10:33:37;26.37;;;17.07;;
30472;SDS011;17263;48.160;11.452;2024-03-08T10:36:07;23.67;;;16.83;;
30472;SDS011;17263;48.160;11.452;2024-03-08T10:38:37;22.27;;;15.40;;
30472;SDS011;17263;48.160;11.452;2024-03-08T10:41:07;19.77;;;15.63;;
30472;SDS011;17263;48.160;11.452;2024-03-08T10:43:47;21.47;;;16.17;;
30472;SDS011;17263;48.160;11.452;2024-03-08T10:49:21;22.23;;;15.33;;
30472;SDS011;17263;48.160;11.452;2024-03-08T10:51:57;20.73;;;14.63;;
30472;SDS011;17263;48.160;11.452;2024-03-08T10:54:25;19.87;;;15.10;;
30472;SDS011;17263;48.160;11.452;2024-03-08T10:56:51;21.47;;;15.20;;
30472;SDS011;17263;48.160;11.452;2024-03-08T10:59:18;18.90;;;14.20;;
30472;SDS011;17263;48.160;11.452;2024-03-08T11:01:45;20.07;;;14.47;;
30472;SDS011;17263;48.160;11.452;2024-03-08T11:04:12;18.70;;;14.07;;
30472;SDS011;17263;48.160;11.452;2024-03-08T11:12:11;20.00;;;14.07;;
30472;SDS011;17263;48.160;11.452;2024-03-08T11:14:46;20.20;;;14.97;;
30472;SDS011;17263;48.160;11.452;2024-03-08T11:17:15;19.60;;;15.53;;
30472;SDS011;17263;48.160;11.452;2024-03-08T11:19:46;18.13;;;14.60;;
30472;SDS011;17263;48.160;11.452;2024-03-08T11:22:24;18.73;;;14.80;;
30472;SDS011;17263;48.160;11.452;2024-03-08T11:25:06;20.43;;;14.60;;
30472;SDS011;17263;48.160;11.452;2024-03-08T11:27:38;20.60;;;15.17;;
30472;SDS011;17263;48.160;11.452;2024-03-08T11:30:04;20.53;;;15.90;;
30472;SDS011;17263;48.160;11.452;2024-03-08T11:32:44;19.63;;;16.27;;
30472;SDS011;17263;48.160;11.452;2024-03-08T11:35:21;20.70;;;15.17;;
30472;SDS011;17263;48.160;11.452;2024-03-08T11:37:48;20.27;;;15.17;;
30472;SDS011;17263;48.160;11.452;2024-03-08T11:40:15;17.73;;;15.20;;
30472;SDS011;17263;48.160;11.452;2024-03-08T11:42:45;21.33;;;14.47;;
30472;SDS011;17263;48.160;11.452;2024-03-08T11:45:17;20.33;;;14.87;;
30472;SDS011;17263;48.160;11.452;2024-03-08T11:47:43;20.23;;;14.53;;
30472;SDS011;17263;48.160;11.452;2024-03-08T11:50:14;18.90;;;14.63;;
30472;SDS011;17263;48.160;11.452;2024-03-08T11:52:40;18.20;;;14.90;;
30472;SDS011;17263;48.160;11.452;2024-03-08T11:55:08;18.57;;;14.87;;
30472;SDS011;17263;48.160;11.452;2024-03-08T11:57:34;17.73;;;14.60;;
30472;SDS011;17263;48.160;11.452;2024-03-08T12:00:01;17.77;;;14.07;;
30472;SDS011;17263;48.160;11.452;2024-03-08T12:02:32;19.73;;;14.57;;
30472;SDS011;17263;48.160;11.452;2024-03-08T12:05:03;17.97;;;14.27;;
30472;SDS011;17263;48.160;11.452;2024-03-08T12:07:31;20.67;;;14.53;;
30472;SDS011;17263;48.160;11.452;2024-03-08T12:12:51;17.77;;;14.20;;
30472;SDS011;17263;48.160;11.452;2024-03-08T12:15:18;18.53;;;14.03;;
30472;SDS011;17263;48.160;11.452;2024-03-08T12:17:49;19.87;;;14.00;;
30472;SDS011;17263;48.160;11.452;2024-03-08T12:22:47;18.23;;;14.20;;
30472;SDS011;17263;48.160;11.452;2024-03-08T12:25:14;18.10;;;13.73;;
30472;SDS011;17263;48.160;11.452;2024-03-08T12:27:41;20.73;;;14.70;;
30472;SDS011;17263;48.160;11.452;2024-03-08T12:30:43;20.20;;;14.93;;
30472;SDS011;17263;48.160;11.452;2024-03-08T12:33:01;19.43;;;14.70;;
30472;SDS011;17263;48.160;11.452;2024-03-08T12:35:28;16.83;;;13.80;;
30472;SDS011;17263;48.160;11.452;2024-03-08T12:37:55;19.83;;;14.77;;
30472;SDS011;17263;48.160;11.452;2024-03-08T12:40:26;18.13;;;14.73;;
30472;SDS011;17263;48.160;11.452;2024-03-08T12:43:00;19.60;;;14.40;;
30472;SDS011;17263;48.160;11.452;2024-03-08T12:45:27;19.53;;;14.93;;
30472;SDS011;17263;48.160;11.452;2024-03-08T12:47:53;18.40;;;14.67;;
30472;SDS011;17263;48.160;11.452;2024-03-08T12:50:20;19.00;;;14.67;;
30472;SDS011;17263;48.160;11.452;2024-03-08T12:52:47;24.77;;;15.43;;
30472;SDS011;17263;48.160;11.452;2024-03-08T12:55:14;18.33;;;14.40;;
30472;SDS011;17263;48.160;11.452;2024-03-08T12:57:42;18.00;;;14.40;;
30472;SDS011;17263;48.160;11.452;2024-03-08T13:00:08;18.17;;;13.80;;
30472;SDS011;17263;48.160;11.452;2024-03-08T13:02:55;16.97;;;14.33;;
30472;SDS011;17263;48.160;11.452;2024-03-08T13:05:21;19.70;;;15.27;;
30472;SDS011;17263;48.160;11.452;2024-03-08T13:07:47;17.57;;;14.73;;
30472;SDS011;17263;48.160;11.452;2024-03-08T13:10:13;18.73;;;14.77;;
30472;SDS011;17263;48.160;11.452;2024-03-08T13:12:41;18.20;;;14.43;;
30472;SDS011;17263;48.160;11.452;2024-03-08T13:15:08;18.97;;;14.70;;
30472;SDS011;17263;48.160;11.452;2024-03-08T13:17:37;18.87;;;14.87;;
30472;SDS011;17263;48.160;11.452;2024-03-08T13:20:06;19.20;;;14.70;;
30472;SDS011;17263;48.160;11.452;2024-03-08T13:22:33;18.63;;;14.53;;
30472;SDS011;17263;48.160;11.452;2024-03-08T13:24:59;17.00;;;14.50;;
30472;SDS011;17263;48.160;11.452;2024-03-08T13:27:27;17.57;;;14.30;;
30472;SDS011;17263;48.160;11.452;2024-03-08T13:29:53;19.17;;;14.80;;
30472;SDS011;17263;48.160;11.452;2024-03-08T13:32:19;17.83;;;14.47;;
30472;SDS011;17263;48.160;11.452;2024-03-08T13:34:49;19.20;;;14.43;;
30472;SDS011;17263;48.160;11.452;2024-03-08T13:37:16;18.07;;;14.03;;
30472;SDS011;17263;48.160;11.452;2024-03-08T13:39:43;17.10;;;14.10;;
30472;SDS011;17263;48.160;11.452;2024-03-08T13:42:09;17.27;;;13.70;;
30472;SDS011;17263;48.160;11.452;2024-03-08T13:44:39;17.90;;;13.73;;
30472;SDS011;17263;48.160;11.452;2024-03-08T13:47:08;15.37;;;13.23;;
30472;SDS011;17263;48.160;11.452;2024-03-08T13:49:37;15.83;;;12.77;;
30472;SDS011;17263;48.160;11.452;2024-03-08T13:52:03;17.43;;;13.47;;
30472;SDS011;17263;48.160;11.452;2024-03-08T13:54:29;17.87;;;14.13;;
30472;SDS011;17263;48.160;11.452;2024-03-08T13:56:57;18.23;;;14.33;;
30472;SDS011;17263;48.160;11.452;2024-03-08T13:59:23;17.03;;;13.87;;
30472;SDS011;17263;48.160;11.452;2024-03-08T14:01:50;16.60;;;13.67;;
30472;SDS011;17263;48.160;11.452;2024-03-08T14:04:16;21.60;;;14.70;;
30472;SDS011;17263;48.160;11.452;2024-03-08T14:06:42;15.57;;;12.47;;
30472;SDS011;17263;48.160;11.452;2024-03-08T14:09:11;14.97;;;13.37;;
30472;SDS011;17263;48.160;11.452;2024-03-08T14:11:42;16.43;;;13.13;;
30472;SDS011;17263;48.160;11.452;2024-03-08T14:14:10;21.47;;;13.50;;
30472;SDS011;17263;48.160;11.452;2024-03-08T14:16:38;31.40;;;13.70;;
30472;SDS011;17263;48.160;11.452;2024-03-08T14:19:04;21.10;;;12.67;;
30472;SDS011;17263;48.160;11.452;2024-03-08T14:21:31;14.03;;;12.27;;
30472;SDS011;17263;48.160;11.452;2024-03-08T14:23:57;15.87;;;12.47;;